sensor_id;sensor_type;location;lat;lon;timestamp;P1;durP1;ratioP1;P2;durP2;ratioP2
13255;SDS011;37913;48.370;10.930;2022-08-19T00:00:07;86.97;;;42.45;;
13255;SDS011;37913;48.370;10.930;2022-08-19T00:02:37;94.40;;;43.50;;
13255;SDS011;37913;48.370;10.930;2022-08-19T00:05:04;92.85;;;43.60;;
13255;SDS011;37913;48.370;10.930;2022-08-19T00:07:31;83.60;;;42.05;;
13255;SDS011;37913;48.370;10.930;2022-08-19T00:10:00;89.45;;;42.95;;
13255;SDS011;37913;48.370;10.930;2022-08-19T00:12:27;85.68;;;42.30;;
13255;SDS011;37913;48.370;10.930;2022-08-19T00:14:54;96.97;;;43.88;;
13255;SDS011;37913;48.370;10.930;2022-08-19T00:17:21;88.40;;;42.97;;
13255;SDS011;37913;48.370;10.930;2022-08-19T00:19:47;89.97;;;43.25;;
13255;SDS011;37913;48.370;10.930;2022-08-19T00:22:15;91.22;;;43.10;;
13255;SDS011;37913;48.370;10.930;2022-08-19T00:24:42;95.90;;;43.75;;
13255;SDS011;37913;48.370;10.930;2022-08-19T00:27:11;91.32;;;43.15;;
13255;SDS011;37913;48.370;10.930;2022-08-19T00:29:38;89.60;;;42.65;;
13255;SDS011;37913;48.370;10.930;2022-08-19T00:32:06;90.35;;;43.00;;
13255;SDS011;37913;48.370;10.930;2022-08-19T00:34:33;88.60;;;42.42;;
13255;SDS011;37913;48.370;10.930;2022-08-19T00:37:01;89.43;;;42.67;;
13255;SDS011;37913;48.370;10.930;2022-08-19T00:39:28;87.13;;;41.47;;
13255;SDS011;37913;48.370;10.930;2022-08-19T00:41:55;95.28;;;42.53;;
13255;SDS011;37913;48.370;10.930;2022-08-19T00:44:24;89.53;;;41.35;;
13255;SDS011;37913;48.370;10.930;2022-08-19T00:46:53;83.65;;;40.63;;
13255;SDS011;37913;48.370;10.930;2022-08-19T00:49:22;88.15;;;40.97;;
13255;SDS011;37913;48.370;10.930;2022-08-19T00:51:54;78.78;;;39.95;;
13255;SDS011;37913;48.370;10.930;2022-08-19T00:54:23;90.45;;;41.40;;
13255;SDS011;37913;48.370;10.930;2022-08-19T00:56:51;87.95;;;41.92;;
13255;SDS011;37913;48.370;10.930;2022-08-19T00:59:19;86.35;;;40.75;;
13255;SDS011;37913;48.370;10.930;2022-08-19T01:01:49;84.07;;;41.22;;
13255;SDS011;37913;48.370;10.930;2022-08-19T01:04:15;88.85;;;42.05;;
13255;SDS011;37913;48.370;10.930;2022-08-19T01:06:43;90.78;;;42.20;;
13255;SDS011;37913;48.370;10.930;2022-08-19T01:09:10;93.22;;;42.58;;
13255;SDS011;37913;48.370;10.930;2022-08-19T01:11:38;101.80;;;44.83;;
13255;SDS011;37913;48.370;10.930;2022-08-19T01:14:08;86.75;;;41.55;;
13255;SDS011;37913;48.370;10.930;2022-08-19T01:16:35;90.40;;;43.38;;
13255;SDS011;37913;48.370;10.930;2022-08-19T01:19:05;89.13;;;42.40;;
13255;SDS011;37913;48.370;10.930;2022-08-19T01:21:40;91.72;;;42.60;;
13255;SDS011;37913;48.370;10.930;2022-08-19T01:24:11;87.93;;;41.75;;
13255;SDS011;37913;48.370;10.930;2022-08-19T01:26:38;83.65;;;41.60;;
13255;SDS011;37913;48.370;10.930;2022-08-19T01:29:08;92.78;;;43.08;;
13255;SDS011;37913;48.370;10.930;2022-08-19T01:31:35;91.68;;;43.00;;
13255;SDS011;37913;48.370;10.930;2022-08-19T01:34:04;98.28;;;44.30;;
13255;SDS011;37913;48.370;10.930;2022-08-19T01:36:33;96.38;;;43.75;;
13255;SDS011;37913;48.370;10.930;2022-08-19T01:39:03;97.80;;;45.15;;
13255;SDS011;37913;48.370;10.930;2022-08-19T01:41:34;94.63;;;43.90;;
13255;SDS011;37913;48.370;10.930;2022-08-19T01:44:01;92.25;;;43.40;;
13255;SDS011;37913;48.370;10.930;2022-08-19T01:46:30;96.35;;;44.60;;
13255;SDS011;37913;48.370;10.930;2022-08-19T01:48:58;108.15;;;47.33;;
13255;SDS011;37913;48.370;10.930;2022-08-19T01:51:25;110.25;;;48.63;;
13255;SDS011;37913;48.370;10.930;2022-08-19T01:53:52;101.82;;;46.75;;
13255;SDS011;37913;48.370;10.930;2022-08-19T01:56:19;104.28;;;46.60;;
13255;SDS011;37913;48.370;10.930;2022-08-19T01:58:49;103.25;;;46.50;;
13255;SDS011;37913;48.370;10.930;2022-08-19T02:01:19;106.10;;;47.97;;
13255;SDS011;37913;48.370;10.930;2022-08-19T02:03:46;101.15;;;46.95;;
13255;SDS011;37913;48.370;10.930;2022-08-19T02:06:13;90.15;;;44.95;;
13255;SDS011;37913;48.370;10.930;2022-08-19T02:08:42;100.80;;;47.25;;
13255;SDS011;37913;48.370;10.930;2022-08-19T02:11:17;108.03;;;49.40;;
13255;SDS011;37913;48.370;10.930;2022-08-19T02:13:45;114.28;;;49.97;;
13255;SDS011;37913;48.370;10.930;2022-08-19T02:16:14;107.10;;;48.85;;
13255;SDS011;37913;48.370;10.930;2022-08-19T02:18:42;104.50;;;48.30;;
13255;SDS011;37913;48.370;10.930;2022-08-19T02:21:09;108.95;;;49.60;;
13255;SDS011;37913;48.370;10.930;2022-08-19T02:23:37;121.68;;;52.58;;
13255;SDS011;37913;48.370;10.930;2022-08-19T02:26:05;102.20;;;48.97;;
13255;SDS011;37913;48.370;10.930;2022-08-19T02:28:32;103.07;;;48.92;;
13255;SDS011;37913;48.370;10.930;2022-08-19T02:31:00;109.88;;;50.53;;
13255;SDS011;37913;48.370;10.930;2022-08-19T02:33:27;114.22;;;51.05;;
13255;SDS011;37913;48.370;10.930;2022-08-19T02:35:54;116.03;;;52.08;;
13255;SDS011;37913;48.370;10.930;2022-08-19T02:38:21;125.40;;;53.42;;
13255;SDS011;37913;48.370;10.930;2022-08-19T02:40:51;115.43;;;52.88;;
13255;SDS011;37913;48.370;10.930;2022-08-19T02:43:20;117.40;;;51.88;;
13255;SDS011;37913;48.370;10.930;2022-08-19T02:45:47;116.50;;;52.42;;
13255;SDS011;37913;48.370;10.930;2022-08-19T02:48:18;120.18;;;52.72;;
13255;SDS011;37913;48.370;10.930;2022-08-19T02:50:46;119.38;;;53.83;;
13255;SDS011;37913;48.370;10.930;2022-08-19T02:53:16;123.80;;;54.53;;
13255;SDS011;37913;48.370;10.930;2022-08-19T02:55:43;135.63;;;56.45;;
13255;SDS011;37913;48.370;10.930;2022-08-19T02:58:12;122.45;;;55.55;;
13255;SDS011;37913;48.370;10.930;2022-08-19T03:00:43;124.57;;;55.97;;
13255;SDS011;37913;48.370;10.930;2022-08-19T03:03:11;125.82;;;56.58;;
13255;SDS011;37913;48.370;10.930;2022-08-19T03:05:40;141.05;;;59.25;;
13255;SDS011;37913;48.370;10.930;2022-08-19T03:08:07;117.63;;;55.10;;
13255;SDS011;37913;48.370;10.930;2022-08-19T03:10:39;134.75;;;57.85;;
13255;SDS011;37913;48.370;10.930;2022-08-19T03:13:09;135.60;;;57.55;;
13255;SDS011;37913;48.370;10.930;2022-08-19T03:15:38;139.13;;;59.00;;
13255;SDS011;37913;48.370;10.930;2022-08-19T03:18:06;128.20;;;59.38;;
13255;SDS011;37913;48.370;10.930;2022-08-19T03:20:34;151.55;;;62.15;;
13255;SDS011;37913;48.370;10.930;2022-08-19T03:23:08;140.48;;;59.95;;
13255;SDS011;37913;48.370;10.930;2022-08-19T03:25:36;148.43;;;61.05;;
13255;SDS011;37913;48.370;10.930;2022-08-19T03:28:05;144.13;;;63.15;;
13255;SDS011;37913;48.370;10.930;2022-08-19T03:30:32;145.18;;;63.17;;
13255;SDS011;37913;48.370;10.930;2022-08-19T03:33:00;131.23;;;60.05;;
13255;SDS011;37913;48.370;10.930;2022-08-19T03:35:27;136.25;;;61.25;;
13255;SDS011;37913;48.370;10.930;2022-08-19T03:37:55;139.68;;;64.30;;
13255;SDS011;37913;48.370;10.930;2022-08-19T03:40:24;139.02;;;63.72;;
13255;SDS011;37913;48.370;10.930;2022-08-19T03:42:51;145.15;;;64.13;;
13255;SDS011;37913;48.370;10.930;2022-08-19T03:45:18;152.27;;;63.78;;
13255;SDS011;37913;48.370;10.930;2022-08-19T03:47:45;155.38;;;64.13;;
13255;SDS011;37913;48.370;10.930;2022-08-19T03:50:12;146.88;;;64.03;;
13255;SDS011;37913;48.370;10.930;2022-08-19T03:52:39;148.55;;;65.30;;
13255;SDS011;37913;48.370;10.930;2022-08-19T03:55:08;152.95;;;67.90;;
13255;SDS011;37913;48.370;10.930;2022-08-19T03:57:35;152.18;;;67.03;;
13255;SDS011;37913;48.370;10.930;2022-08-19T04:00:03;149.57;;;66.65;;
13255;SDS011;37913;48.370;10.930;2022-08-19T04:02:32;156.82;;;65.22;;
13255;SDS011;37913;48.370;10.930;2022-08-19T04:04:59;156.73;;;68.38;;
13255;SDS011;37913;48.370;10.930;2022-08-19T04:07:26;158.27;;;67.20;;
13255;SDS011;37913;48.370;10.930;2022-08-19T04:09:53;165.65;;;67.22;;
13255;SDS011;37913;48.370;10.930;2022-08-19T04:12:21;148.50;;;67.57;;
13255;SDS011;37913;48.370;10.930;2022-08-19T04:14:48;151.48;;;68.28;;
13255;SDS011;37913;48.370;10.930;2022-08-19T04:17:15;155.95;;;68.80;;
13255;SDS011;37913;48.370;10.930;2022-08-19T04:19:42;163.95;;;70.68;;
13255;SDS011;37913;48.370;10.930;2022-08-19T04:22:09;152.70;;;66.72;;
13255;SDS011;37913;48.370;10.930;2022-08-19T04:24:41;157.27;;;67.68;;
13255;SDS011;37913;48.370;10.930;2022-08-19T04:27:08;147.10;;;69.15;;
13255;SDS011;37913;48.370;10.930;2022-08-19T04:29:37;137.20;;;64.35;;
13255;SDS011;37913;48.370;10.930;2022-08-19T04:32:05;142.10;;;64.80;;
13255;SDS011;37913;48.370;10.930;2022-08-19T04:34:32;141.95;;;66.60;;
13255;SDS011;37913;48.370;10.930;2022-08-19T04:36:59;152.15;;;66.82;;
13255;SDS011;37913;48.370;10.930;2022-08-19T04:39:27;146.07;;;66.47;;
13255;SDS011;37913;48.370;10.930;2022-08-19T04:42:09;153.27;;;67.45;;
13255;SDS011;37913;48.370;10.930;2022-08-19T04:44:55;154.85;;;66.47;;
13255;SDS011;37913;48.370;10.930;2022-08-19T04:47:23;137.40;;;64.63;;
13255;SDS011;37913;48.370;10.930;2022-08-19T04:49:50;151.75;;;63.47;;
13255;SDS011;37913;48.370;10.930;2022-08-19T04:52:17;142.70;;;65.50;;
13255;SDS011;37913;48.370;10.930;2022-08-19T04:54:44;158.15;;;67.20;;
13255;SDS011;37913;48.370;10.930;2022-08-19T04:57:11;154.07;;;66.38;;
13255;SDS011;37913;48.370;10.930;2022-08-19T04:59:39;138.32;;;63.78;;
13255;SDS011;37913;48.370;10.930;2022-08-19T05:02:08;154.85;;;66.15;;
13255;SDS011;37913;48.370;10.930;2022-08-19T05:04:36;134.02;;;63.35;;
13255;SDS011;37913;48.370;10.930;2022-08-19T05:07:04;141.57;;;65.43;;
13255;SDS011;37913;48.370;10.930;2022-08-19T05:09:31;134.65;;;63.70;;
13255;SDS011;37913;48.370;10.930;2022-08-19T05:11:58;152.40;;;66.38;;
13255;SDS011;37913;48.370;10.930;2022-08-19T05:14:25;138.93;;;64.38;;
13255;SDS011;37913;48.370;10.930;2022-08-19T05:16:54;134.27;;;63.67;;
13255;SDS011;37913;48.370;10.930;2022-08-19T05:19:22;129.55;;;63.17;;
13255;SDS011;37913;48.370;10.930;2022-08-19T05:22:07;139.82;;;64.28;;
13255;SDS011;37913;48.370;10.930;2022-08-19T05:24:51;154.40;;;66.43;;
13255;SDS011;37913;48.370;10.930;2022-08-19T05:27:18;143.23;;;65.63;;
13255;SDS011;37913;48.370;10.930;2022-08-19T05:29:45;132.65;;;63.40;;
13255;SDS011;37913;48.370;10.930;2022-08-19T05:32:12;136.77;;;65.85;;
13255;SDS011;37913;48.370;10.930;2022-08-19T05:34:40;145.60;;;66.47;;
13255;SDS011;37913;48.370;10.930;2022-08-19T05:37:07;140.23;;;63.60;;
13255;SDS011;37913;48.370;10.930;2022-08-19T05:39:35;142.73;;;65.43;;
13255;SDS011;37913;48.370;10.930;2022-08-19T05:42:04;140.05;;;65.25;;
13255;SDS011;37913;48.370;10.930;2022-08-19T05:44:33;141.60;;;65.00;;
13255;SDS011;37913;48.370;10.930;2022-08-19T05:47:05;136.00;;;64.07;;
13255;SDS011;37913;48.370;10.930;2022-08-19T05:49:33;127.88;;;62.15;;
13255;SDS011;37913;48.370;10.930;2022-08-19T05:52:03;137.82;;;63.90;;
13255;SDS011;37913;48.370;10.930;2022-08-19T05:54:32;142.98;;;66.05;;
13255;SDS011;37913;48.370;10.930;2022-08-19T05:57:00;132.43;;;63.55;;
13255;SDS011;37913;48.370;10.930;2022-08-19T05:59:28;133.18;;;65.57;;
13255;SDS011;37913;48.370;10.930;2022-08-19T06:01:55;134.38;;;65.93;;
13255;SDS011;37913;48.370;10.930;2022-08-19T06:04:22;138.77;;;65.80;;
13255;SDS011;37913;48.370;10.930;2022-08-19T06:06:51;133.82;;;65.90;;
13255;SDS011;37913;48.370;10.930;2022-08-19T06:09:20;138.30;;;67.03;;
13255;SDS011;37913;48.370;10.930;2022-08-19T06:11:48;144.23;;;68.57;;
13255;SDS011;37913;48.370;10.930;2022-08-19T06:14:19;140.00;;;72.45;;
13255;SDS011;37913;48.370;10.930;2022-08-19T06:16:47;135.80;;;66.47;;
13255;SDS011;37913;48.370;10.930;2022-08-19T06:19:17;140.43;;;67.40;;
13255;SDS011;37913;48.370;10.930;2022-08-19T06:21:46;132.80;;;66.18;;
13255;SDS011;37913;48.370;10.930;2022-08-19T06:24:14;144.95;;;68.05;;
13255;SDS011;37913;48.370;10.930;2022-08-19T06:26:46;145.25;;;67.40;;
13255;SDS011;37913;48.370;10.930;2022-08-19T06:29:14;136.85;;;66.75;;
13255;SDS011;37913;48.370;10.930;2022-08-19T06:31:43;136.07;;;66.05;;
13255;SDS011;37913;48.370;10.930;2022-08-19T06:34:12;151.13;;;71.50;;
13255;SDS011;37913;48.370;10.930;2022-08-19T06:36:41;129.90;;;64.65;;
13255;SDS011;37913;48.370;10.930;2022-08-19T06:39:10;145.60;;;71.68;;
13255;SDS011;37913;48.370;10.930;2022-08-19T06:41:40;145.85;;;68.28;;
13255;SDS011;37913;48.370;10.930;2022-08-19T06:44:10;136.48;;;67.97;;
13255;SDS011;37913;48.370;10.930;2022-08-19T06:46:38;128.52;;;66.78;;
13255;SDS011;37913;48.370;10.930;2022-08-19T06:49:06;134.90;;;68.00;;
13255;SDS011;37913;48.370;10.930;2022-08-19T06:51:34;130.52;;;66.45;;
13255;SDS011;37913;48.370;10.930;2022-08-19T06:54:01;140.52;;;70.65;;
13255;SDS011;37913;48.370;10.930;2022-08-19T06:56:28;133.27;;;67.38;;
13255;SDS011;37913;48.370;10.930;2022-08-19T06:59:07;146.68;;;69.30;;
13255;SDS011;37913;48.370;10.930;2022-08-19T07:01:38;145.70;;;68.32;;
13255;SDS011;37913;48.370;10.930;2022-08-19T07:04:06;139.65;;;68.93;;
13255;SDS011;37913;48.370;10.930;2022-08-19T07:06:35;145.05;;;70.07;;
13255;SDS011;37913;48.370;10.930;2022-08-19T07:09:02;138.45;;;69.25;;
13255;SDS011;37913;48.370;10.930;2022-08-19T07:11:30;148.13;;;70.30;;
13255;SDS011;37913;48.370;10.930;2022-08-19T07:13:57;146.40;;;71.32;;
13255;SDS011;37913;48.370;10.930;2022-08-19T07:16:24;143.35;;;69.90;;
13255;SDS011;37913;48.370;10.930;2022-08-19T07:18:54;150.52;;;73.13;;
13255;SDS011;37913;48.370;10.930;2022-08-19T07:21:23;146.90;;;71.38;;
13255;SDS011;37913;48.370;10.930;2022-08-19T07:23:53;144.43;;;71.75;;
13255;SDS011;37913;48.370;10.930;2022-08-19T07:26:21;144.05;;;71.28;;
13255;SDS011;37913;48.370;10.930;2022-08-19T07:28:50;147.55;;;73.40;;
13255;SDS011;37913;48.370;10.930;2022-08-19T07:31:21;140.45;;;72.18;;
13255;SDS011;37913;48.370;10.930;2022-08-19T07:33:50;148.20;;;69.65;;
13255;SDS011;37913;48.370;10.930;2022-08-19T07:36:22;149.23;;;71.97;;
13255;SDS011;37913;48.370;10.930;2022-08-19T07:38:51;143.52;;;72.38;;
13255;SDS011;37913;48.370;10.930;2022-08-19T07:41:21;138.90;;;70.78;;
13255;SDS011;37913;48.370;10.930;2022-08-19T07:43:50;141.32;;;72.03;;
13255;SDS011;37913;48.370;10.930;2022-08-19T07:46:19;159.55;;;74.32;;
13255;SDS011;37913;48.370;10.930;2022-08-19T07:48:46;155.77;;;74.65;;
13255;SDS011;37913;48.370;10.930;2022-08-19T07:51:16;148.07;;;73.55;;
13255;SDS011;37913;48.370;10.930;2022-08-19T07:53:46;169.18;;;75.40;;
13255;SDS011;37913;48.370;10.930;2022-08-19T07:56:15;150.60;;;70.97;;
13255;SDS011;37913;48.370;10.930;2022-08-19T07:58:44;151.95;;;73.78;;
13255;SDS011;37913;48.370;10.930;2022-08-19T08:01:13;145.60;;;71.35;;
13255;SDS011;37913;48.370;10.930;2022-08-19T08:03:41;160.98;;;82.10;;
13255;SDS011;37913;48.370;10.930;2022-08-19T08:06:26;154.73;;;72.03;;
13255;SDS011;37913;48.370;10.930;2022-08-19T08:09:13;155.38;;;72.70;;
13255;SDS011;37913;48.370;10.930;2022-08-19T08:11:49;149.48;;;73.15;;
13255;SDS011;37913;48.370;10.930;2022-08-19T08:14:18;150.10;;;71.78;;
13255;SDS011;37913;48.370;10.930;2022-08-19T08:16:47;145.57;;;71.68;;
13255;SDS011;37913;48.370;10.930;2022-08-19T08:19:16;151.40;;;72.65;;
13255;SDS011;37913;48.370;10.930;2022-08-19T08:21:44;161.70;;;75.07;;
13255;SDS011;37913;48.370;10.930;2022-08-19T08:24:13;159.60;;;73.07;;
13255;SDS011;37913;48.370;10.930;2022-08-19T08:26:41;158.57;;;73.95;;
13255;SDS011;37913;48.370;10.930;2022-08-19T08:29:08;164.23;;;74.78;;
13255;SDS011;37913;48.370;10.930;2022-08-19T08:31:36;172.95;;;78.32;;
13255;SDS011;37913;48.370;10.930;2022-08-19T08:34:05;150.77;;;71.93;;
13255;SDS011;37913;48.370;10.930;2022-08-19T08:36:35;137.98;;;70.25;;
13255;SDS011;37913;48.370;10.930;2022-08-19T08:39:06;171.45;;;79.63;;
13255;SDS011;37913;48.370;10.930;2022-08-19T08:41:37;161.75;;;73.85;;
13255;SDS011;37913;48.370;10.930;2022-08-19T08:44:11;160.68;;;74.60;;
13255;SDS011;37913;48.370;10.930;2022-08-19T08:46:44;155.40;;;71.90;;
13255;SDS011;37913;48.370;10.930;2022-08-19T08:49:19;152.98;;;73.82;;
13255;SDS011;37913;48.370;10.930;2022-08-19T08:51:57;159.88;;;73.97;;
13255;SDS011;37913;48.370;10.930;2022-08-19T08:54:34;153.25;;;74.03;;
13255;SDS011;37913;48.370;10.930;2022-08-19T08:57:07;176.18;;;77.88;;
13255;SDS011;37913;48.370;10.930;2022-08-19T08:59:39;162.35;;;75.32;;
13255;SDS011;37913;48.370;10.930;2022-08-19T09:02:08;157.93;;;75.55;;
13255;SDS011;37913;48.370;10.930;2022-08-19T09:04:36;162.85;;;76.97;;
13255;SDS011;37913;48.370;10.930;2022-08-19T09:07:18;153.43;;;72.63;;
13255;SDS011;37913;48.370;10.930;2022-08-19T09:09:56;153.30;;;71.38;;
13255;SDS011;37913;48.370;10.930;2022-08-19T09:12:35;156.82;;;74.38;;
13255;SDS011;37913;48.370;10.930;2022-08-19T09:15:08;161.75;;;75.45;;
13255;SDS011;37913;48.370;10.930;2022-08-19T09:17:38;154.20;;;74.57;;
13255;SDS011;37913;48.370;10.930;2022-08-19T09:20:06;160.88;;;76.03;;
13255;SDS011;37913;48.370;10.930;2022-08-19T09:22:41;146.10;;;71.82;;
13255;SDS011;37913;48.370;10.930;2022-08-19T09:25:10;157.73;;;76.03;;
13255;SDS011;37913;48.370;10.930;2022-08-19T09:27:40;159.48;;;73.63;;
13255;SDS011;37913;48.370;10.930;2022-08-19T09:30:09;165.43;;;75.57;;
13255;SDS011;37913;48.370;10.930;2022-08-19T09:32:39;161.98;;;76.18;;
13255;SDS011;37913;48.370;10.930;2022-08-19T09:35:08;157.40;;;77.63;;
13255;SDS011;37913;48.370;10.930;2022-08-19T09:37:35;159.77;;;76.93;;
13255;SDS011;37913;48.370;10.930;2022-08-19T09:40:03;198.38;;;84.63;;
13255;SDS011;37913;48.370;10.930;2022-08-19T09:42:31;161.57;;;76.15;;
13255;SDS011;37913;48.370;10.930;2022-08-19T09:45:00;193.05;;;80.72;;
13255;SDS011;37913;48.370;10.930;2022-08-19T09:47:27;153.75;;;75.07;;
13255;SDS011;37913;48.370;10.930;2022-08-19T09:49:54;155.18;;;75.57;;
13255;SDS011;37913;48.370;10.930;2022-08-19T09:52:21;152.52;;;73.80;;
13255;SDS011;37913;48.370;10.930;2022-08-19T09:54:51;189.73;;;80.63;;
13255;SDS011;37913;48.370;10.930;2022-08-19T09:57:19;152.77;;;75.28;;
13255;SDS011;37913;48.370;10.930;2022-08-19T09:59:45;155.52;;;75.40;;
13255;SDS011;37913;48.370;10.930;2022-08-19T10:02:14;164.82;;;78.20;;
13255;SDS011;37913;48.370;10.930;2022-08-19T10:04:41;155.35;;;73.05;;
13255;SDS011;37913;48.370;10.930;2022-08-19T10:07:26;138.68;;;70.35;;
13255;SDS011;37913;48.370;10.930;2022-08-19T10:09:55;145.80;;;72.15;;
13255;SDS011;37913;48.370;10.930;2022-08-19T10:12:22;152.90;;;75.00;;
13255;SDS011;37913;48.370;10.930;2022-08-19T10:14:49;180.13;;;83.30;;
13255;SDS011;37913;48.370;10.930;2022-08-19T10:17:19;156.88;;;73.28;;
13255;SDS011;37913;48.370;10.930;2022-08-19T10:19:46;153.20;;;74.05;;
13255;SDS011;37913;48.370;10.930;2022-08-19T10:22:13;159.35;;;73.75;;
13255;SDS011;37913;48.370;10.930;2022-08-19T10:24:41;153.57;;;70.30;;
13255;SDS011;37913;48.370;10.930;2022-08-19T10:27:08;164.45;;;73.03;;
13255;SDS011;37913;48.370;10.930;2022-08-19T10:29:35;150.02;;;72.43;;
13255;SDS011;37913;48.370;10.930;2022-08-19T10:32:02;157.82;;;73.95;;
13255;SDS011;37913;48.370;10.930;2022-08-19T10:34:35;157.85;;;72.85;;
13255;SDS011;37913;48.370;10.930;2022-08-19T10:37:03;155.88;;;72.53;;
13255;SDS011;37913;48.370;10.930;2022-08-19T10:39:31;184.55;;;75.88;;
13255;SDS011;37913;48.370;10.930;2022-08-19T10:42:03;168.07;;;71.60;;
13255;SDS011;37913;48.370;10.930;2022-08-19T10:44:31;180.07;;;71.95;;
13255;SDS011;37913;48.370;10.930;2022-08-19T10:47:00;167.13;;;73.80;;
13255;SDS011;37913;48.370;10.930;2022-08-19T10:49:27;186.68;;;75.18;;
13255;SDS011;37913;48.370;10.930;2022-08-19T10:51:56;185.68;;;73.72;;
13255;SDS011;37913;48.370;10.930;2022-08-19T10:54:40;200.10;;;74.28;;
13255;SDS011;37913;48.370;10.930;2022-08-19T10:57:24;187.48;;;71.78;;
13255;SDS011;37913;48.370;10.930;2022-08-19T10:59:54;164.60;;;68.40;;
13255;SDS011;37913;48.370;10.930;2022-08-19T11:02:22;177.38;;;66.45;;
13255;SDS011;37913;48.370;10.930;2022-08-19T11:04:49;188.38;;;70.72;;
13255;SDS011;37913;48.370;10.930;2022-08-19T11:07:17;168.95;;;64.30;;
13255;SDS011;37913;48.370;10.930;2022-08-19T11:09:46;174.80;;;64.20;;
13255;SDS011;37913;48.370;10.930;2022-08-19T11:12:14;155.43;;;63.10;;
13255;SDS011;37913;48.370;10.930;2022-08-19T11:14:42;151.07;;;60.72;;
13255;SDS011;37913;48.370;10.930;2022-08-19T11:17:09;156.77;;;60.80;;
13255;SDS011;37913;48.370;10.930;2022-08-19T11:19:38;211.20;;;63.83;;
13255;SDS011;37913;48.370;10.930;2022-08-19T11:22:07;192.95;;;65.40;;
13255;SDS011;37913;48.370;10.930;2022-08-19T11:24:35;203.60;;;62.70;;
13255;SDS011;37913;48.370;10.930;2022-08-19T11:27:03;157.63;;;61.67;;
13255;SDS011;37913;48.370;10.930;2022-08-19T11:29:32;160.63;;;60.25;;
13255;SDS011;37913;48.370;10.930;2022-08-19T11:32:00;148.35;;;61.13;;
13255;SDS011;37913;48.370;10.930;2022-08-19T11:34:30;150.80;;;58.33;;
13255;SDS011;37913;48.370;10.930;2022-08-19T11:36:57;155.07;;;59.22;;
13255;SDS011;37913;48.370;10.930;2022-08-19T11:39:26;140.77;;;57.20;;
13255;SDS011;37913;48.370;10.930;2022-08-19T11:41:57;154.60;;;57.22;;
13255;SDS011;37913;48.370;10.930;2022-08-19T11:44:25;141.77;;;57.42;;
13255;SDS011;37913;48.370;10.930;2022-08-19T11:46:52;134.73;;;54.83;;
13255;SDS011;37913;48.370;10.930;2022-08-19T11:49:20;122.28;;;52.00;;
13255;SDS011;37913;48.370;10.930;2022-08-19T11:51:47;135.23;;;52.47;;
13255;SDS011;37913;48.370;10.930;2022-08-19T11:54:15;136.73;;;50.97;;
13255;SDS011;37913;48.370;10.930;2022-08-19T11:56:43;107.93;;;48.22;;
13255;SDS011;37913;48.370;10.930;2022-08-19T11:59:12;122.45;;;50.80;;
13255;SDS011;37913;48.370;10.930;2022-08-19T12:01:39;119.18;;;48.85;;
13255;SDS011;37913;48.370;10.930;2022-08-19T12:04:07;95.20;;;46.20;;
13255;SDS011;37913;48.370;10.930;2022-08-19T12:06:37;121.15;;;51.65;;
13255;SDS011;37913;48.370;10.930;2022-08-19T12:09:05;133.27;;;52.50;;
13255;SDS011;37913;48.370;10.930;2022-08-19T12:11:34;144.38;;;55.45;;
13255;SDS011;37913;48.370;10.930;2022-08-19T12:14:02;137.13;;;58.00;;
13255;SDS011;37913;48.370;10.930;2022-08-19T12:16:31;136.02;;;58.00;;
13255;SDS011;37913;48.370;10.930;2022-08-19T12:18:59;134.73;;;59.28;;
13255;SDS011;37913;48.370;10.930;2022-08-19T12:21:29;146.32;;;58.78;;
13255;SDS011;37913;48.370;10.930;2022-08-19T12:23:58;150.07;;;59.60;;
13255;SDS011;37913;48.370;10.930;2022-08-19T12:26:26;125.82;;;56.88;;
13255;SDS011;37913;48.370;10.930;2022-08-19T12:28:54;152.38;;;60.63;;
13255;SDS011;37913;48.370;10.930;2022-08-19T12:31:24;145.20;;;57.40;;
13255;SDS011;37913;48.370;10.930;2022-08-19T12:33:52;138.32;;;59.05;;
13255;SDS011;37913;48.370;10.930;2022-08-19T12:36:19;138.38;;;58.72;;
13255;SDS011;37913;48.370;10.930;2022-08-19T12:38:49;121.95;;;55.47;;
13255;SDS011;37913;48.370;10.930;2022-08-19T12:41:18;136.30;;;54.97;;
13255;SDS011;37913;48.370;10.930;2022-08-19T12:43:47;108.95;;;52.58;;
13255;SDS011;37913;48.370;10.930;2022-08-19T12:46:16;109.95;;;50.63;;
13255;SDS011;37913;48.370;10.930;2022-08-19T12:48:43;130.90;;;54.30;;
13255;SDS011;37913;48.370;10.930;2022-08-19T12:51:14;110.18;;;51.25;;
13255;SDS011;37913;48.370;10.930;2022-08-19T12:53:43;122.68;;;51.63;;
13255;SDS011;37913;48.370;10.930;2022-08-19T12:56:10;116.40;;;51.47;;
13255;SDS011;37913;48.370;10.930;2022-08-19T12:58:39;127.30;;;53.88;;
13255;SDS011;37913;48.370;10.930;2022-08-19T13:01:07;116.05;;;51.35;;
13255;SDS011;37913;48.370;10.930;2022-08-19T13:03:37;108.20;;;49.80;;
13255;SDS011;37913;48.370;10.930;2022-08-19T13:06:07;99.47;;;48.55;;
13255;SDS011;37913;48.370;10.930;2022-08-19T13:08:36;112.85;;;51.05;;
13255;SDS011;37913;48.370;10.930;2022-08-19T13:11:08;114.90;;;50.80;;
13255;SDS011;37913;48.370;10.930;2022-08-19T13:13:37;117.82;;;52.75;;
13255;SDS011;37913;48.370;10.930;2022-08-19T13:16:06;119.03;;;54.30;;
13255;SDS011;37913;48.370;10.930;2022-08-19T13:18:33;117.25;;;53.13;;
13255;SDS011;37913;48.370;10.930;2022-08-19T13:21:04;101.72;;;50.83;;
13255;SDS011;37913;48.370;10.930;2022-08-19T13:23:32;109.93;;;51.67;;
13255;SDS011;37913;48.370;10.930;2022-08-19T13:26:02;100.45;;;50.92;;
13255;SDS011;37913;48.370;10.930;2022-08-19T13:28:31;102.75;;;51.65;;
13255;SDS011;37913;48.370;10.930;2022-08-19T13:31:14;98.03;;;49.38;;
13255;SDS011;37913;48.370;10.930;2022-08-19T13:33:59;94.40;;;49.42;;
13255;SDS011;37913;48.370;10.930;2022-08-19T13:36:26;86.22;;;47.63;;
13255;SDS011;37913;48.370;10.930;2022-08-19T13:38:53;102.28;;;50.90;;
13255;SDS011;37913;48.370;10.930;2022-08-19T13:41:23;91.85;;;49.22;;
13255;SDS011;37913;48.370;10.930;2022-08-19T13:43:50;101.95;;;51.13;;
13255;SDS011;37913;48.370;10.930;2022-08-19T13:46:17;112.95;;;53.88;;
13255;SDS011;37913;48.370;10.930;2022-08-19T13:48:44;89.57;;;49.50;;
13255;SDS011;37913;48.370;10.930;2022-08-19T13:51:13;102.95;;;51.10;;
13255;SDS011;37913;48.370;10.930;2022-08-19T13:53:41;102.50;;;51.55;;
13255;SDS011;37913;48.370;10.930;2022-08-19T13:56:10;103.30;;;51.78;;
13255;SDS011;37913;48.370;10.930;2022-08-19T13:58:40;105.05;;;51.78;;
13255;SDS011;37913;48.370;10.930;2022-08-19T14:01:07;98.38;;;50.35;;
13255;SDS011;37913;48.370;10.930;2022-08-19T14:03:34;100.50;;;50.95;;
13255;SDS011;37913;48.370;10.930;2022-08-19T14:06:02;119.55;;;55.72;;
13255;SDS011;37913;48.370;10.930;2022-08-19T14:08:30;105.43;;;52.95;;